Time;durP1;ratioP1;P1;durP2;ratioP2;P2;SDS_P1;SDS_P2;PMS_P1;PMS_P2;Temp;Humidity;BMP_temperature;BMP_pressure;BME280_temperature;BME280_humidity;BME280_pressure;Samples;Min_cycle;Max_cycle;Signal;HPM_P1;HPM_P2
2022/11/21 00:00:47;;;;;;;;;;;7.60;93.00;;;7.98;61.87;97941.88;5003799;28;108835;-74
2022/11/21 00:03:13;;;;;;;;;;;7.60;93.00;;;7.99;61.77;97951.75;4999944;28;123375;-74
2022/11/21 00:05:42;;;;;;;;;;;7.60;93.10;;;8.02;61.69;97942.03;5026483;27;123017;-76
2022/11/21 00:08:09;;;;;;;;;;;7.60;93.10;;;8.06;62.07;97935.59;5035890;27;109204;-74
2022/11/21 00:10:36;;;;;;;;;;;7.70;93.20;;;8.10;61.74;97931.06;4996310;28;108532;-74
2022/11/21 00:13:03;;;;;;;;;;;7.70;93.20;;;8.16;61.71;97942.75;5005296;28;124412;-74
2022/11/21 00:15:29;;;;;;;;;;;7.70;93.20;;;8.17;61.64;97917.66;5030564;27;123373;-74
2022/11/21 00:17:55;;;;;;;;;;;7.70;93.20;;;8.18;61.72;97915.72;5014287;28;109428;-74
2022/11/21 00:20:22;;;;;;;;;;;7.80;93.30;;;8.21;61.72;97917.84;5012370;28;108484;-74
2022/11/21 00:22:48;;;;;;;;;;;7.80;93.30;;;8.22;61.50;97919.47;5023191;27;124372;-74
2022/11/21 00:25:15;;;;;;;;;;;7.80;93.30;;;8.22;61.62;97908.47;5005518;28;123915;-73
2022/11/21 00:27:41;;;;;;;;;;;7.80;93.30;;;8.24;61.58;97905.38;5026373;28;109403;-74
2022/11/21 00:30:09;;;;;;;;;;;7.80;93.20;;;8.22;61.44;97899.38;5011850;28;109946;-74
2022/11/21 00:32:35;;;;;;;;;;;7.80;93.20;;;8.19;61.71;97901.66;5015321;28;123892;-78
2022/11/21 00:35:02;;;;;;;;;;;7.80;93.10;;;8.19;61.62;97898.06;5014228;28;122935;-76
2022/11/21 00:37:28;;;;;;;;;;;7.80;93.20;;;8.19;61.53;97884.31;5014019;28;108798;-76
2022/11/21 00:39:54;;;;;;;;;;;7.80;93.10;;;8.21;61.57;97887.56;5034398;28;108303;-74
2022/11/21 00:42:21;;;;;;;;;;;7.80;93.50;;;8.23;61.72;97890.00;5011738;28;124635;-75
2022/11/21 00:44:47;;;;;;;;;;;7.80;93.20;;;8.26;61.81;97890.19;5011564;28;122958;-75
2022/11/21 00:47:13;;;;;;;;;;;7.90;93.20;;;8.30;61.42;97890.34;5011427;28;109743;-75
2022/11/21 00:49:39;;;;;;;;;;;7.90;93.20;;;8.31;61.41;97881.78;5010089;28;108512;-75
2022/11/21 00:52:06;;;;;;;;;;;7.90;93.20;;;8.32;61.35;97888.09;5010059;28;123994;-74
2022/11/21 00:54:32;;;;;;;;;;;7.90;93.20;;;8.32;61.48;97882.56;5011829;28;123687;-75
2022/11/21 00:56:59;;;;;;;;;;;7.90;93.10;;;8.32;61.20;97877.88;5029086;28;108805;-74
2022/11/21 00:59:26;;;;;;;;;;;7.90;93.10;;;8.29;61.20;97880.47;5010321;28;109552;-75
2022/11/21 01:01:52;;;;;;;;;;;7.90;93.10;;;8.23;61.32;97868.81;5002777;28;124339;-74
2022/11/21 01:04:22;;;;;;;;;;;9.40;93.70;;;8.19;61.27;97874.16;5010174;28;124575;-75
2022/11/21 01:06:48;;;;;;;;;;;7.80;93.00;;;8.15;61.22;97877.84;5010249;28;109482;-74
2022/11/21 01:09:14;;;;;;;;;;;7.80;93.00;;;8.11;61.27;97879.59;5004532;28;108790;-74
2022/11/21 01:11:41;;;;;;;;;;;7.70;93.00;;;8.08;61.19;97875.53;5008244;28;124664;-75
2022/11/21 01:14:07;;;;;;;;;;;7.70;93.00;;;8.04;61.16;97879.28;5028363;27;123875;-74
2022/11/21 01:16:33;;;;;;;;;;;7.60;93.00;;;7.99;61.20;97876.66;5009714;28;110666;-74
2022/11/21 01:19:00;;;;;;;;;;;7.60;93.00;;;7.94;61.52;97880.34;5010201;28;109349;-74
2022/11/21 01:21:28;;;;;;;;;;;7.50;93.00;;;7.88;61.52;97879.69;5027903;28;123383;-74
2022/11/21 01:23:56;;;;;;;;;;;7.50;93.10;;;7.85;61.56;97880.34;5030429;27;123343;-75
2022/11/21 01:26:24;;;;;;;;;;;7.50;93.20;;;7.81;61.89;97868.34;5014064;28;109364;-74
2022/11/21 01:28:51;;;;;;;;;;;7.40;93.20;;;7.78;61.90;97871.72;4997636;28;107698;-74
2022/11/21 01:31:22;;;;;;;;;;;7.40;93.30;;;7.77;62.18;97866.56;5012505;28;123309;-74
2022/11/21 01:33:48;;;;;;;;;;;7.40;93.30;;;7.74;62.24;97866.06;5014439;28;124238;-75
2022/11/21 01:36:29;;;;;;;;;;;7.40;93.40;;;7.72;62.35;97867.50;5008758;28;109098;-74
2022/11/21 01:38:58;;;;;;;;;;;7.30;93.40;;;7.69;62.44;97871.69;5007496;28;108695;-74
2022/11/21 01:41:25;;;;;;;;;;;7.30;93.60;;;7.66;63.03;97877.81;5044665;27;124927;-75
2022/11/21 01:43:52;;;;;;;;;;;7.30;93.70;;;7.62;63.32;97868.56;5004733;28;123554;-74
2022/11/21 01:46:22;;;;;;;;;;;7.20;93.90;;;7.56;63.92;97855.28;5017087;28;109362;-74
2022/11/21 01:49:07;;;;;;;;;;;7.20;94.10;;;7.51;64.16;97858.97;5047113;27;109186;-74
2022/11/21 01:51:42;;;;;;;;;;;7.10;94.30;;;7.45;64.76;97863.00;5046485;27;123978;-75
2022/11/21 01:54:22;;;;;;;;;;;7.10;94.50;;;7.39;64.61;97847.75;5013346;28;123771;-74
2022/11/21 01:57:03;;;;;;;;;;;7.00;94.60;;;7.35;65.13;97855.00;5018976;28;108778;-75
2022/11/21 01:59:33;;;;;;;;;;;7.00;94.70;;;7.27;65.03;97842.84;5002683;28;107870;-75
2022/11/21 02:02:01;;;;;;;;;;;7.00;94.80;;;7.26;65.30;97841.22;5016570;28;123711;-74
2022/11/21 02:04:29;;;;;;;;;;;6.90;94.90;;;7.25;65.30;97843.19;5011648;28;124147;-74
2022/11/21 02:07:00;;;;;;;;;;;6.90;95.00;;;7.25;65.65;97840.44;5013660;28;110497;-74
2022/11/21 02:09:28;;;;;;;;;;;6.90;95.00;;;7.25;65.81;97840.44;5012198;28;109339;-75
2022/11/21 02:11:58;;;;;;;;;;;6.90;95.00;;;7.26;65.45;97838.50;5047527;27;123511;-75
2022/11/21 02:14:25;;;;;;;;;;;6.90;95.20;;;7.25;65.82;97845.09;5010108;28;123802;-75
2022/11/21 02:16:53;;;;;;;;;;;6.90;95.20;;;7.26;65.75;97841.22;5047197;27;109386;-74
2022/11/21 02:19:27;;;;;;;;;;;6.90;95.30;;;7.29;65.72;97837.84;5014872;28;108247;-74
2022/11/21 02:21:56;;;;;;;;;;;6.90;95.30;;;7.29;65.67;97835.09;5028602;27;124510;-74
2022/11/21 02:24:39;;;;;;;;;;;6.90;95.30;;;7.27;65.37;97843.66;5013305;28;123667;-74
2022/11/21 02:27:05;;;;;;;;;;;6.90;95.30;;;7.21;65.57;97852.34;5040635;27;109793;-74
2022/11/21 02:29:32;;;;;;;;;;;6.80;95.20;;;7.19;65.38;97840.84;5042716;27;108708;-75
2022/11/21 02:32:04;;;;;;;;;;;6.80;95.20;;;7.18;65.79;97839.25;5011411;28;123529;-74
2022/11/21 02:34:31;;;;;;;;;;;6.80;95.20;;;7.18;65.58;97845.53;5011887;28;124199;-74
2022/11/21 02:36:58;;;;;;;;;;;6.80;95.10;;;7.16;65.52;97838.75;5044703;27;109157;-74
2022/11/21 02:39:29;;;;;;;;;;;6.80;95.20;;;7.16;65.12;97846.97;5012699;28;108672;-75
2022/11/21 02:42:03;;;;;;;;;;;6.80;95.10;;;7.16;65.31;97836.00;5040874;27;124834;-75
2022/11/21 02:44:39;;;;;;;;;;;6.80;95.10;;;7.14;65.52;97832.75;5009727;28;124767;-75
2022/11/21 02:47:05;;;;;;;;;;;6.80;95.10;;;7.11;65.40;97836.13;5024509;28;109502;-75
2022/11/21 02:49:54;;;;;;;;;;;6.80;95.20;;;7.10;65.46;97826.28;5044869;27;107995;-75
2022/11/21 02:52:20;;;;;;;;;;;6.80;95.20;;;7.05;65.64;97835.44;5039191;27;124128;-74
2022/11/21 02:54:46;;;;;;;;;;;6.70;95.20;;;7.05;65.82;97828.00;5005101;28;124009;-75
2022/11/21 02:57:13;;;;;;;;;;;6.70;95.20;;;7.06;65.65;97821.38;5010984;28;110175;-74
2022/11/21 02:59:39;;;;;;;;;;;6.70;95.30;;;7.07;65.73;97817.53;5011053;28;109719;-75
2022/11/21 03:02:05;;;;;;;;;;;6.70;95.30;;;7.07;65.85;97806.53;4997085;28;124349;-75
2022/11/21 03:04:32;;;;;;;;;;;6.70;95.30;;;7.09;65.60;97808.97;4998445;28;123826;-74
2022/11/21 03:06:58;;;;;;;;;;;6.70;95.30;;;7.11;65.61;97800.41;5012616;28;109324;-74
2022/11/21 03:09:24;;;;;;;;;;;6.70;95.30;;;7.11;65.76;97800.41;5012630;28;108510;-75
2022/11/21 03:11:50;;;;;;;;;;;6.70;95.30;;;7.12;65.77;97804.78;5008707;28;123908;-75
2022/11/21 03:14:17;;;;;;;;;;;6.70;95.30;;;7.11;65.50;97795.72;5006990;28;124040;-74
2022/11/21 03:16:43;;;;;;;;;;;6.70;95.30;;;7.12;65.78;97799.28;5012896;28;108412;-74
2022/11/21 03:19:09;;;;;;;;;;;6.80;95.30;;;7.14;65.97;97805.28;4997407;28;108385;-74
2022/11/21 03:21:35;;;;;;;;;;;6.80;95.30;;;7.12;65.54;97788.28;5025990;27;124045;-74
2022/11/21 03:24:02;;;;;;;;;;;6.80;95.40;;;7.13;65.90;97787.19;5003975;28;123347;-75
2022/11/21 03:26:28;;;;;;;;;;;6.80;95.30;;;7.14;65.68;97786.03;4991960;28;108835;-75
2022/11/21 03:28:54;;;;;;;;;;;6.80;95.30;;;7.13;65.85;97787.19;4986249;28;108751;-74
2022/11/21 03:31:21;;;;;;;;;;;6.80;95.30;;;7.14;65.90;97788.78;4985411;28;124120;-74
2022/11/21 03:33:47;;;;;;;;;;;6.80;95.30;;;7.16;65.68;97798.34;4990994;28;124016;-74
2022/11/21 03:36:13;;;;;;;;;;;6.80;95.30;;;7.17;65.30;97810.13;4990274;28;109380;-74
2022/11/21 03:38:39;;;;;;;;;;;6.80;95.30;;;7.19;65.56;97807.91;5006337;28;108870;-74
2022/11/21 03:41:28;;;;;;;;;;;6.80;95.30;;;7.19;65.39;97805.94;4989324;28;124437;-74
2022/11/21 03:44:02;;;;;;;;;;;6.80;95.30;;;7.21;65.40;97797.41;4990089;28;124651;-75
2022/11/21 03:46:30;;;;;;;;;;;6.80;95.30;;;7.24;65.43;97802.28;4987252;28;110322;-75
2022/11/21 03:48:57;;;;;;;;;;;6.80;95.30;;;7.27;65.53;97798.88;4992718;28;108876;-74
2022/11/21 03:51:23;;;;;;;;;;;6.90;95.30;;;7.33;65.46;97805.06;5009523;28;122379;-74
2022/11/21 03:53:50;;;;;;;;;;;5.60;94.80;;;7.37;65.49;97809.63;4975641;28;122774;-74
2022/11/21 03:56:17;;;;;;;;;;;6.90;95.30;;;7.40;65.24;97805.41;5012612;28;108590;-75
2022/11/21 03:58:44;;;;;;;;;;;7.00;95.30;;;7.41;65.03;97799.59;5010669;28;108742;-74
2022/11/21 04:01:12;;;;;;;;;;;7.00;95.20;;;7.43;64.87;97811.09;5011244;28;124205;-74
2022/11/21 04:03:39;;;;;;;;;;;7.00;95.30;;;7.47;65.28;97805.78;5012043;28;124033;-74
2022/11/21 04:06:05;;;;;;;;;;;7.00;95.20;;;7.46;64.72;97813.19;5013663;28;109349;-74
2022/11/21 04:08:32;;;;;;;;;;;7.00;95.20;;;7.46;65.26;97802.22;5013164;28;107488;-75
2022/11/21 04:10:58;;;;;;;;;;;7.10;95.20;;;7.46;65.07;97791.22;5010897;28;124161;-75
2022/11/21 04:13:24;;;;;;;;;;;7.10;95.30;;;7.47;65.30;97800.28;5036105;27;124018;-75
2022/11/21 04:15:51;;;;;;;;;;;7.00;95.20;;;7.46;65.20;97796.72;5012567;28;109353;-74
2022/11/21 04:18:17;;;;;;;;;;;7.10;95.30;;;7.45;65.14;97800.59;5010983;28;108699;-76
2022/11/21 04:20:43;;;;;;;;;;;7.00;95.30;;;7.45;65.39;97800.59;5046332;27;123648;-74
2022/11/21 04:23:11;;;;;;;;;;;7.10;95.30;;;7.45;65.13;97789.59;5033711;27;123947;-78
2022/11/21 04:25:37;;;;;;;;;;;7.10;95.40;;;7.49;65.20;97784.28;5011536;28;112208;-76
2022/11/21 04:28:04;;;;;;;;;;;7.10;95.40;;;7.50;65.36;97785.91;5008514;28;108546;-75
2022/11/21 04:30:32;;;;;;;;;;;7.10;95.40;;;7.52;65.22;97794.63;5010799;28;124629;-75
2022/11/21 04:33:00;;;;;;;;;;;7.10;95.40;;;7.56;65.18;97797.56;5009903;28;123704;-75
2022/11/21 04:35:26;;;;;;;;;;;7.10;95.40;;;7.57;65.65;97799.19;4970839;28;110394;-75
2022/11/21 04:37:52;;;;;;;;;;;7.20;95.40;;;7.58;65.53;97800.81;4952648;28;109626;-75
2022/11/21 04:40:20;;;;;;;;;;;7.20;95.40;;;7.60;65.20;97795.78;4970717;28;124063;-74
2022/11/21 04:42:46;;;;;;;;;;;7.20;95.40;;;7.63;65.24;97800.66;4985310;28;124121;-74
2022/11/21 04:45:14;;;;;;;;;;;7.20;95.40;;;7.64;65.75;97799.53;4965837;28;108604;-74
2022/11/21 04:47:42;;;;;;;;;;;7.20;95.80;;;7.66;65.62;97794.53;4971691;28;108837;-74
2022/11/21 04:50:10;;;;;;;;;;;7.20;95.50;;;7.67;65.49;97796.16;4953474;28;123878;-74
2022/11/21 04:52:37;;;;;;;;;;;7.30;95.50;;;7.69;65.28;97788.41;4968540;28;124229;-74
2022/11/21 04:55:04;;;;;;;;;;;7.30;95.50;;;7.71;65.30;97791.63;4955325;28;108577;-74
2022/11/21 04:57:31;;;;;;;;;;;7.40;95.50;;;7.75;65.44;97792.63;4968713;28;109386;-74
2022/11/21 04:59:58;;;;;;;;;;;7.30;95.50;;;7.79;65.61;97793.63;4970229;28;124363;-74
2022/11/21 05:02:24;;;;;;;;;;;7.40;95.60;;;7.83;65.66;97791.84;4968024;28;124515;-75
2022/11/21 05:04:50;;;;;;;;;;;7.40;95.60;;;7.86;65.35;97785.69;4983130;28;109614;-74
2022/11/21 05:07:37;;;;;;;;;;;7.40;95.50;;;7.88;65.37;97790.88;4999884;28;108078;-74
2022/11/21 05:10:07;;;;;;;;;;;7.40;95.50;;;7.87;65.21;97787.34;4991863;28;124263;-75
2022/11/21 05:15:18;;;;;;;;;;;7.40;95.40;;;7.89;65.16;97779.56;4981734;28;110126;-75
2022/11/21 05:17:45;;;;;;;;;;;7.40;95.40;;;7.88;65.29;97775.19;4973182;28;108346;-74
2022/11/21 05:20:12;;;;;;;;;;;7.40;95.40;;;7.90;65.22;97777.63;4986960;28;123251;-75
2022/11/21 05:22:38;;;;;;;;;;;7.50;95.50;;;7.92;64.97;97789.09;4969129;28;124122;-74
2022/11/21 05:25:05;;;;;;;;;;;7.50;95.50;;;7.94;64.97;97795.09;4970885;28;109181;-75
2022/11/21 05:27:31;;;;;;;;;;;7.50;95.40;;;7.90;65.09;97786.69;4985452;28;109833;-74
2022/11/21 05:29:57;;;;;;;;;;;7.50;95.40;;;7.91;65.41;97788.28;4990444;28;123878;-74
2022/11/21 05:32:24;;;;;;;;;;;7.50;95.40;;;7.89;65.17;97793.31;4981542;28;122930;-75
2022/11/21 05:34:50;;;;;;;;;;;7.50;95.50;;;7.88;65.03;97786.19;4954677;28;108499;-76
2022/11/21 05:37:17;;;;;;;;;;;7.50;95.40;;;7.87;65.44;97800.25;4988886;28;108745;-75
2022/11/21 05:39:43;;;;;;;;;;;7.50;95.40;;;7.87;65.24;97783.75;4976141;28;124126;-75
2022/11/21 05:42:10;;;;;;;;;;;7.50;95.40;;;7.87;65.18;97801.09;4988482;28;123911;-74
2022/11/21 05:44:37;;;;;;;;;;;7.50;95.40;;;7.87;65.06;97801.09;4973193;28;109246;-75
2022/11/21 05:47:03;;;;;;;;;;;7.40;95.40;;;7.87;65.57;97809.34;4972150;28;107789;-74
2022/11/21 05:49:29;;;;;;;;;;;7.50;95.40;;;7.87;65.47;97812.09;5009598;28;124316;-74
2022/11/21 05:51:55;;;;;;;;;;;7.50;95.40;;;7.89;65.40;97801.56;5000609;28;123866;-74
2022/11/21 05:54:22;;;;;;;;;;;7.50;95.50;;;7.92;65.08;97811.91;4997151;28;109697;-74
2022/11/21 05:56:48;;;;;;;;;;;8.40;95.80;;;7.93;65.32;97821.81;5017489;28;108134;-74
2022/11/21 05:59:15;;;;;;;;;;;7.50;95.50;;;7.96;65.17;97814.84;4988967;28;124301;-74
2022/11/21 06:04:26;;;;;;;;;;;7.50;95.40;;;8.00;65.07;97810.31;5007923;28;110169;-74
2022/11/21 06:06:53;;;;;;;;;;;7.60;95.50;;;8.04;65.03;97808.56;5009803;28;107964;-74
2022/11/21 06:09:19;;;;;;;;;;;7.60;95.50;;;8.08;65.16;97801.28;5009783;28;124150;-74
2022/11/21 06:11:45;;;;;;;;;;;7.60;95.50;;;8.13;65.02;97811.31;5012171;28;124059;-74
2022/11/21 06:14:11;;;;;;;;;;;7.60;95.50;;;8.15;64.87;97806.31;4997045;28;109280;-74
2022/11/21 06:16:37;;;;;;;;;;;7.70;95.50;;;8.16;65.07;97816.97;4997856;28;108700;-74
2022/11/21 06:19:04;;;;;;;;;;;7.70;95.40;;;8.16;64.70;97819.72;5013426;28;124683;-74
2022/11/21 06:21:33;;;;;;;;;;;7.70;95.40;;;8.14;64.69;97816.50;5012577;28;124192;-75
2022/11/21 06:23:59;;;;;;;;;;;7.70;95.30;;;8.16;64.60;97819.72;5012376;28;109379;-74
2022/11/21 06:26:26;;;;;;;;;;;7.70;95.30;;;8.19;64.63;97815.53;5012370;28;108543;-75
2022/11/21 06:28:53;;;;;;;;;;;7.70;95.30;;;8.20;64.52;97819.91;5007371;28;124267;-74
2022/11/21 06:31:24;;;;;;;;;;;7.80;95.30;;;8.21;64.53;97815.22;5003031;28;124055;-76
2022/11/21 06:33:55;;;;;;;;;;;7.70;95.20;;;8.20;64.38;97817.16;4999203;28;109232;-75
2022/11/21 06:36:24;;;;;;;;;;;7.80;95.20;;;8.23;64.52;97810.22;4997600;28;108363;-79
2022/11/21 06:38:53;;;;;;;;;;;7.80;95.20;;;8.25;64.36;97808.75;5032418;27;124038;-78
2022/11/21 06:41:24;;;;;;;;;;;7.80;95.20;;;8.29;64.43;97812.47;5004700;28;124539;-74
2022/11/21 06:43:51;;;;;;;;;;;7.80;95.20;;;8.30;64.19;97814.13;5000463;28;109286;-75
2022/11/21 06:46:55;;;;;;;;;;;7.90;95.20;;;8.30;64.20;97816.88;5035105;27;108862;-84
2022/11/21 06:49:21;;;;;;;;;;;7.90;95.10;;;8.28;64.32;97816.38;5007472;28;123509;-75
2022/11/21 06:51:47;;;;;;;;;;;7.80;95.10;;;8.28;64.23;97821.88;4993013;28;123271;-76
2022/11/21 06:54:14;;;;;;;;;;;7.90;95.10;;;8.28;64.24;97829.31;4997605;28;109577;-74
2022/11/21 06:56:40;;;;;;;;;;;7.80;95.10;;;8.28;64.45;97832.88;5011915;28;108453;-75
2022/11/21 06:59:06;;;;;;;;;;;7.80;95.10;;;8.29;64.25;97837.25;5013953;28;123077;-74
2022/11/21 07:01:32;;;;;;;;;;;7.80;95.10;;;8.29;64.21;97834.50;5023517;27;123899;-74
2022/11/21 07:03:59;;;;;;;;;;;7.80;95.10;;;8.30;64.23;97833.38;5001772;28;110098;-75
2022/11/21 07:06:26;;;;;;;;;;;7.90;95.10;;;8.31;64.27;97836.94;5011378;28;108644;-74
2022/11/21 07:08:56;;;;;;;;;;;7.90;95.10;;;8.29;64.38;97828.19;5038805;27;124040;-75
2022/11/21 07:11:23;;;;;;;;;;;7.90;95.20;;;8.26;64.03;97818.63;5014948;28;123920;-74
2022/11/21 07:13:49;;;;;;;;;;;7.80;95.10;;;8.23;64.17;97830.28;5020477;28;109494;-74
2022/11/21 07:16:16;;;;;;;;;;;7.80;95.10;;;8.22;64.23;97831.44;5021241;28;109072;-75
2022/11/21 07:18:43;;;;;;;;;;;7.80;95.10;;;8.22;64.11;97828.69;5011098;28;124281;-74
2022/11/21 07:21:10;;;;;;;;;;;7.80;95.10;;;8.24;64.34;97829.13;5012912;28;123806;-74
2022/11/21 07:23:36;;;;;;;;;;;7.80;95.10;;;8.26;64.36;97828.84;5044096;27;109182;-74
2022/11/21 07:26:05;;;;;;;;;;;7.80;95.10;;;8.28;64.19;97819.13;5011627;28;108741;-75
2022/11/21 07:28:33;;;;;;;;;;;7.80;95.10;;;8.31;64.19;97823.97;5010334;28;124215;-75
2022/11/21 07:31:00;;;;;;;;;;;7.90;95.10;;;8.35;64.04;97815.88;5011088;28;123304;-75
2022/11/21 07:33:27;;;;;;;;;;;7.90;95.10;;;8.37;64.01;97822.69;5009100;28;108976;-75
2022/11/21 07:35:57;;;;;;;;;;;7.90;95.10;;;8.39;63.81;97817.72;5011842;28;108782;-75
2022/11/21 07:38:24;;;;;;;;;;;7.90;95.00;;;8.41;63.79;97814.66;5013598;28;124150;-76
2022/11/21 07:40:51;;;;;;;;;;;7.90;95.00;;;8.44;63.64;97813.19;5015260;28;124563;-75
2022/11/21 07:43:17;;;;;;;;;;;7.90;95.30;;;8.46;64.10;97810.91;5017008;28;109446;-75
2022/11/21 07:45:43;;;;;;;;;;;7.90;94.90;;;8.46;63.84;97810.91;5011238;28;108902;-75
2022/11/21 07:48:10;;;;;;;;;;;7.90;94.90;;;8.48;63.47;97814.97;5022016;28;124115;-74
2022/11/21 07:50:42;;;;;;;;;;;8.00;94.90;;;8.52;63.52;97810.44;4999594;28;124025;-76
2022/11/21 07:53:10;;;;;;;;;;;8.00;94.90;;;8.56;63.43;97816.09;5002902;28;110149;-74
2022/11/21 07:55:36;;;;;;;;;;;8.10;94.90;;;8.59;63.29;97824.50;4996499;28;109972;-75
2022/11/21 07:58:07;;;;;;;;;;;8.10;94.90;;;8.61;62.82;97824.19;5003629;28;124248;-75
2022/11/21 08:00:37;;;;;;;;;;;8.10;94.70;;;8.58;62.98;97833.09;5001559;28;123094;-75
2022/11/21 08:03:05;;;;;;;;;;;8.10;94.60;;;8.56;62.97;97827.91;4995190;28;109699;-75
2022/11/21 08:05:40;;;;;;;;;;;8.10;94.50;;;8.57;62.68;97831.47;5026392;27;108735;-73
2022/11/21 08:08:07;;;;;;;;;;;8.10;94.50;;;8.56;62.83;97829.88;5007905;28;124006;-74
2022/11/21 08:10:39;;;;;;;;;;;8.10;94.50;;;8.60;62.72;97822.59;5011187;28;123914;-75
2022/11/21 08:13:05;;;;;;;;;;;10.10;94.80;;;8.61;62.43;97832.47;5043074;27;109762;-75
2022/11/21 08:15:31;;;;;;;;;;;8.10;94.40;;;8.60;62.58;97822.59;5035479;27;108905;-74
2022/11/21 08:17:58;;;;;;;;;;;8.10;94.40;;;8.63;62.91;97821.94;4994869;28;124520;-75
2022/11/21 08:20:24;;;;;;;;;;;8.10;94.30;;;8.63;62.53;97810.94;5037550;27;123890;-74
2022/11/21 08:22:50;;;;;;;;;;;8.10;94.30;;;8.65;62.54;97811.41;5000228;28;109857;-75
2022/11/21 08:25:17;;;;;;;;;;;8.20;94.30;;;8.68;62.50;97810.75;5002991;28;107964;-75
2022/11/21 08:27:43;;;;;;;;;;;8.20;94.30;;;8.71;62.34;97804.59;4998366;28;125000;-74
2022/11/21 08:30:10;;;;;;;;;;;8.20;94.30;;;8.74;62.39;97795.69;5036438;27;122727;-76
2022/11/21 08:32:37;;;;;;;;;;;8.20;94.30;;;8.78;62.42;97807.66;5012577;28;109137;-75
2022/11/21 08:35:03;;;;;;;;;;;8.20;94.40;;;8.84;62.26;97800.88;5009577;28;108903;-75
2022/11/21 08:37:29;;;;;;;;;;;8.30;94.40;;;8.90;62.56;97808.97;5012276;28;123911;-75
2022/11/21 08:39:57;;;;;;;;;;;8.30;94.50;;;8.94;62.34;97796.94;5011987;28;125033;-74
2022/11/21 08:42:24;;;;;;;;;;;9.80;95.10;;;8.98;62.16;97808.16;5009850;28;110417;-74
2022/11/21 08:44:50;;;;;;;;;;;8.40;94.40;;;9.00;62.39;97803.09;4994141;28;109287;-74
2022/11/21 08:47:19;;;;;;;;;;;8.40;94.40;;;9.03;62.10;97802.47;5027330;27;123204;-74
2022/11/21 08:49:46;;;;;;;;;;;8.50;94.40;;;9.06;61.93;97801.81;5007965;28;124513;-74
2022/11/21 08:52:16;;;;;;;;;;;8.50;94.20;;;9.06;62.17;97802.63;5007282;28;109496;-75
2022/11/21 08:54:46;;;;;;;;;;;8.50;94.20;;;9.06;61.42;97797.09;5006459;28;108781;-75
2022/11/21 08:57:12;;;;;;;;;;;8.50;94.10;;;9.07;61.51;97790.44;5009201;28;123465;-74
2022/11/21 08:59:38;;;;;;;;;;;8.50;94.00;;;9.11;61.50;97793.38;5005572;28;123800;-75
2022/11/21 09:02:05;;;;;;;;;;;8.60;94.00;;;9.12;61.66;97794.19;5011201;28;108187;-75
2022/11/21 09:04:31;;;;;;;;;;;8.60;94.00;;;9.12;61.31;97791.44;5023475;27;108576;-75
2022/11/21 09:06:57;;;;;;;;;;;8.60;93.90;;;9.12;61.45;97783.16;5004628;28;124027;-74
2022/11/21 09:09:23;;;;;;;;;;;8.60;93.90;;;9.13;61.38;97782.00;5001739;28;124120;-78
2022/11/21 09:11:50;;;;;;;;;;;8.60;93.90;;;9.17;61.38;97796.75;5026748;27;109625;-75
2022/11/21 09:19:45;;;;;;;;;;;8.70;93.80;;;9.21;61.18;97765.44;5009618;28;124631;-74
2022/11/21 09:22:12;;;;;;;;;;;8.70;93.70;;;9.23;60.91;97768.69;5004014;28;109346;-74
2022/11/21 09:24:38;;;;;;;;;;;8.70;93.60;;;9.29;60.94;97778.41;5001403;28;108898;-76
2022/11/21 09:27:04;;;;;;;;;;;8.80;93.70;;;9.36;60.85;97777.91;5000821;28;123618;-76
2022/11/21 09:29:30;;;;;;;;;;;8.80;93.80;;;9.44;60.88;97773.50;4994436;28;124002;-75
2022/11/21 09:31:57;;;;;;;;;;;8.90;93.80;;;9.51;61.00;97779.31;5006532;28;110279;-76
2022/11/21 09:34:23;;;;;;;;;;;9.00;93.70;;;9.58;60.70;97779.59;4999581;28;109303;-76
2022/11/21 09:36:51;;;;;;;;;;;9.00;93.60;;;9.67;60.36;97771.28;4994261;28;124286;-74
2022/11/21 09:39:19;;;;;;;;;;;9.10;93.60;;;9.74;60.60;97777.88;4991285;28;124199;-75
2022/11/21 09:41:53;;;;;;;;;;;9.20;93.60;;;9.81;60.06;97774.63;5035264;27;108979;-75
2022/11/21 09:44:25;;;;;;;;;;;9.20;93.60;;;9.91;60.05;97771.50;4996234;28;108980;-76
2022/11/21 09:46:59;;;;;;;;;;;9.30;93.50;;;9.99;59.58;97783.59;5004017;28;123936;-75
2022/11/21 09:49:26;;;;;;;;;;;9.30;93.40;;;10.05;59.49;97771.25;5031964;27;123023;-74
2022/11/21 09:51:54;;;;;;;;;;;9.40;93.40;;;10.12;59.36;97757.69;4999544;28;109347;-74
2022/11/21 09:54:30;;;;;;;;;;;9.50;93.30;;;10.24;59.48;97756.19;4996053;28;108425;-74
2022/11/21 09:56:56;;;;;;;;;;;9.60;93.30;;;10.31;59.13;97750.94;5000435;28;123377;-74
2022/11/21 09:59:33;;;;;;;;;;;9.70;93.10;;;10.34;57.95;97758.56;5017865;28;123402;-72
2022/11/21 10:02:00;;;;;;;;;;;9.70;92.50;;;10.32;57.36;97752.59;5007540;28;109413;-75
2022/11/21 10:04:27;;;;;;;;;;;9.80;92.20;;;10.33;56.93;97754.19;5005136;28;108785;-75
2022/11/21 10:06:59;;;;;;;;;;;9.80;91.90;;;10.32;56.51;97733.25;5010906;28;124284;-77
2022/11/21 10:09:28;;;;;;;;;;;9.80;91.60;;;10.33;56.22;97723.81;5009671;28;123733;-76
2022/11/21 10:12:38;;;;;;;;;;;9.80;91.50;;;10.36;56.52;97712.09;5046891;27;108318;-74
2022/11/21 10:15:26;;;;;;;;;;;9.80;91.50;;;10.37;55.75;97705.44;5004894;28;108723;-74
2022/11/21 10:18:09;;;;;;;;;;;9.90;91.30;;;10.40;56.26;97710.28;4993577;28;125005;-73
2022/11/21 10:21:14;;;;;;;;;;;9.90;91.20;;;10.48;56.34;97701.13;5004315;28;124376;-74
2022/11/21 10:24:00;;;;;;;;;;;10.00;90.70;;;10.58;56.15;97689.63;4989359;28;110099;-74
2022/11/21 10:26:48;;;;;;;;;;;10.10;90.80;;;10.72;55.85;97689.34;5011650;28;107800;-74
2022/11/21 10:29:52;;;;;;;;;;;10.10;90.80;;;10.84;55.44;97683.03;4999216;28;125034;-75
2022/11/21 10:32:54;;;;;;;;;;;10.30;90.70;;;10.93;55.28;97678.22;4987377;28;122933;-76
2022/11/21 10:35:25;;;;;;;;;;;10.30;90.50;;;11.06;54.72;97671.56;4999846;28;109815;-76
2022/11/21 10:37:53;;;;;;;;;;;10.40;90.40;;;11.19;54.22;97668.81;5000968;28;108708;-76
2022/11/21 10:40:31;;;;;;;;;;;10.50;90.20;;;11.27;54.04;97670.66;5009783;28;124184;-76
2022/11/21 10:46:08;;;;;;;;;;;10.70;89.50;;;11.36;53.23;97668.59;5003184;28;110744;-77
2022/11/21 10:48:34;;;;;;;;;;;10.80;89.10;;;11.37;52.88;97661.91;5005409;28;108717;-76
2022/11/21 10:51:13;;;;;;;;;;;10.80;88.40;;;11.36;52.88;97651.19;4999310;28;125463;-75
2022/11/21 10:56:25;;;;;;;;;;;10.90;87.90;;;11.41;52.78;97642.66;5012414;28;110116;-83
2022/11/21 10:58:54;;;;;;;;;;;10.90;87.80;;;11.42;52.43;97630.47;4980011;28;108001;-74
2022/11/21 11:01:29;;;;;;;;;;;10.90;87.50;;;11.42;52.31;97628.50;4991581;28;124841;-74
2022/11/21 11:04:12;;;;;;;;;;;10.90;87.50;;;11.42;52.21;97624.94;4996003;28;125077;-75
2022/11/21 11:06:40;;;;;;;;;;;11.00;87.30;;;11.40;52.24;97630.81;5008964;28;108423;-74
2022/11/21 11:09:30;;;;;;;;;;;11.00;87.30;;;11.43;52.50;97607.97;4990978;28;107500;-74
2022/11/21 11:15:38;;;;;;;;;;;11.00;87.10;;;11.43;51.86;97590.59;5027541;27;124927;-77
2022/11/21 11:18:05;;;;;;;;;;;11.00;86.50;;;11.44;52.04;97595.75;4970593;28;110695;-75
2022/11/21 11:20:39;;;;;;;;;;;11.00;87.20;;;11.49;51.72;97587.22;4967884;28;110332;-76
2022/11/21 11:23:16;;;;;;;;;;;11.10;86.60;;;11.57;51.58;97574.41;4955793;28;123609;-74
2022/11/21 11:25:51;;;;;;;;;;;11.10;86.50;;;11.66;51.59;97577.03;4947960;28;124529;-75
2022/11/21 11:28:18;;;;;;;;;;;11.20;86.40;;;11.70;50.85;97576.00;4963104;28;108355;-76
2022/11/21 11:30:46;;;;;;;;;;;11.20;85.60;;;11.71;50.63;97572.09;4966985;28;108781;-75
2022/11/21 11:33:31;;;;;;;;;;;11.20;85.20;;;11.80;50.22;97566.41;4964982;28;123675;-75
2022/11/21 11:36:32;;;;;;;;;;;11.30;85.10;;;11.83;50.30;97562.94;4970642;28;124120;-79
2022/11/21 11:38:59;;;;;;;;;;;11.30;84.40;;;11.85;49.78;97560.63;4952053;28;108218;-77
2022/11/21 11:47:51;;;;;;;;;;;11.40;81.80;;;11.87;48.34;97546.47;4965080;28;124725;-76
2022/11/21 11:50:40;;;;;;;;;;;11.40;81.50;;;11.98;47.90;97539.25;4963594;28;108922;-76
2022/11/21 11:53:21;;;;;;;;;;;11.50;81.20;;;12.16;48.11;97534.22;4970695;28;108916;-85
2022/11/21 11:55:58;;;;;;;;;;;11.60;81.40;;;12.38;47.76;97528.13;4989204;28;123162;-75
2022/11/21 11:58:37;;;;;;;;;;;11.80;81.80;;;12.62;47.75;97522.75;4991590;28;123893;-75